sensor_id;sensor_type;location;lat;lon;timestamp;P1;durP1;ratioP1;P2;durP2;ratioP2
44766;SDS011;30487;48.716;9.272;2023-06-14T00:01:34;6.47;;;3.58;;
44766;SDS011;30487;48.716;9.272;2023-06-14T00:04:00;5.85;;;2.97;;
44766;SDS011;30487;48.716;9.272;2023-06-14T00:06:26;8.13;;;3.40;;
44766;SDS011;30487;48.716;9.272;2023-06-14T00:08:53;9.32;;;3.63;;
44766;SDS011;30487;48.716;9.272;2023-06-14T00:11:19;8.70;;;4.10;;
44766;SDS011;30487;48.716;9.272;2023-06-14T00:13:45;7.15;;;3.30;;
44766;SDS011;30487;48.716;9.272;2023-06-14T00:16:11;6.00;;;3.30;;
44766;SDS011;30487;48.716;9.272;2023-06-14T00:18:36;8.80;;;4.00;;
44766;SDS011;30487;48.716;9.272;2023-06-14T00:21:03;11.55;;;4.10;;
44766;SDS011;30487;48.716;9.272;2023-06-14T00:23:29;7.63;;;3.63;;
44766;SDS011;30487;48.716;9.272;2023-06-14T00:25:54;9.75;;;4.10;;
44766;SDS011;30487;48.716;9.272;2023-06-14T00:28:20;9.07;;;4.30;;
44766;SDS011;30487;48.716;9.272;2023-06-14T00:30:46;8.73;;;3.80;;
44766;SDS011;30487;48.716;9.272;2023-06-14T00:33:11;10.18;;;3.83;;
44766;SDS011;30487;48.716;9.272;2023-06-14T00:35:37;10.00;;;4.20;;
44766;SDS011;30487;48.716;9.272;2023-06-14T00:38:03;8.18;;;4.25;;
44766;SDS011;30487;48.716;9.272;2023-06-14T00:40:29;7.75;;;4.28;;
44766;SDS011;30487;48.716;9.272;2023-06-14T00:42:54;6.70;;;4.10;;
44766;SDS011;30487;48.716;9.272;2023-06-14T00:45:20;7.57;;;3.90;;
44766;SDS011;30487;48.716;9.272;2023-06-14T00:47:46;6.68;;;3.70;;
44766;SDS011;30487;48.716;9.272;2023-06-14T00:50:12;8.45;;;4.13;;
44766;SDS011;30487;48.716;9.272;2023-06-14T00:52:38;8.18;;;4.00;;
44766;SDS011;30487;48.716;9.272;2023-06-14T00:55:04;8.50;;;4.75;;
44766;SDS011;30487;48.716;9.272;2023-06-14T00:57:31;8.43;;;4.47;;
44766;SDS011;30487;48.716;9.272;2023-06-14T00:59:56;6.30;;;3.72;;
44766;SDS011;30487;48.716;9.272;2023-06-14T01:02:22;8.15;;;3.83;;
44766;SDS011;30487;48.716;9.272;2023-06-14T01:04:49;7.40;;;3.83;;
44766;SDS011;30487;48.716;9.272;2023-06-14T01:16:04;7.97;;;3.65;;
44766;SDS011;30487;48.716;9.272;2023-06-14T01:18:30;7.15;;;3.78;;
44766;SDS011;30487;48.716;9.272;2023-06-14T01:20:57;8.38;;;3.63;;
44766;SDS011;30487;48.716;9.272;2023-06-14T01:23:23;6.20;;;3.55;;
44766;SDS011;30487;48.716;9.272;2023-06-14T01:25:49;8.75;;;3.42;;
44766;SDS011;30487;48.716;9.272;2023-06-14T01:28:18;7.40;;;3.42;;
44766;SDS011;30487;48.716;9.272;2023-06-14T01:30:46;7.47;;;3.67;;
44766;SDS011;30487;48.716;9.272;2023-06-14T01:33:24;7.47;;;3.47;;
44766;SDS011;30487;48.716;9.272;2023-06-14T01:35:52;8.50;;;3.65;;
44766;SDS011;30487;48.716;9.272;2023-06-14T01:38:20;6.45;;;4.00;;
44766;SDS011;30487;48.716;9.272;2023-06-14T01:40:48;6.97;;;3.80;;
44766;SDS011;30487;48.716;9.272;2023-06-14T01:43:15;7.18;;;4.20;;
44766;SDS011;30487;48.716;9.272;2023-06-14T01:45:42;9.68;;;3.92;;
44766;SDS011;30487;48.716;9.272;2023-06-14T01:48:10;9.38;;;3.80;;
44766;SDS011;30487;48.716;9.272;2023-06-14T01:50:36;6.15;;;3.92;;
44766;SDS011;30487;48.716;9.272;2023-06-14T01:53:02;6.90;;;3.90;;
44766;SDS011;30487;48.716;9.272;2023-06-14T01:55:27;7.57;;;3.83;;
44766;SDS011;30487;48.716;9.272;2023-06-14T01:57:53;8.77;;;4.40;;
44766;SDS011;30487;48.716;9.272;2023-06-14T02:00:19;8.20;;;4.03;;
44766;SDS011;30487;48.716;9.272;2023-06-14T02:02:46;11.50;;;4.47;;
44766;SDS011;30487;48.716;9.272;2023-06-14T02:05:12;6.25;;;3.53;;
44766;SDS011;30487;48.716;9.272;2023-06-14T02:07:38;8.23;;;3.75;;
44766;SDS011;30487;48.716;9.272;2023-06-14T02:10:04;7.97;;;3.85;;
44766;SDS011;30487;48.716;9.272;2023-06-14T02:12:30;6.80;;;3.95;;
44766;SDS011;30487;48.716;9.272;2023-06-14T02:14:55;6.30;;;3.90;;
44766;SDS011;30487;48.716;9.272;2023-06-14T02:17:21;7.15;;;3.50;;
44766;SDS011;30487;48.716;9.272;2023-06-14T02:19:47;8.05;;;3.63;;
44766;SDS011;30487;48.716;9.272;2023-06-14T02:22:13;8.57;;;3.67;;
44766;SDS011;30487;48.716;9.272;2023-06-14T02:24:40;9.38;;;4.30;;
44766;SDS011;30487;48.716;9.272;2023-06-14T02:27:06;6.97;;;3.80;;
44766;SDS011;30487;48.716;9.272;2023-06-14T02:29:31;5.60;;;3.45;;
44766;SDS011;30487;48.716;9.272;2023-06-14T02:31:57;7.35;;;3.72;;
44766;SDS011;30487;48.716;9.272;2023-06-14T02:34:22;7.82;;;3.92;;
44766;SDS011;30487;48.716;9.272;2023-06-14T02:36:48;7.97;;;3.97;;
44766;SDS011;30487;48.716;9.272;2023-06-14T02:39:14;6.72;;;4.15;;
44766;SDS011;30487;48.716;9.272;2023-06-14T02:41:40;10.65;;;4.57;;
44766;SDS011;30487;48.716;9.272;2023-06-14T02:44:06;8.10;;;4.03;;
44766;SDS011;30487;48.716;9.272;2023-06-14T02:46:31;8.75;;;3.78;;
44766;SDS011;30487;48.716;9.272;2023-06-14T02:48:57;6.20;;;3.88;;
44766;SDS011;30487;48.716;9.272;2023-06-14T02:51:22;8.00;;;4.72;;
44766;SDS011;30487;48.716;9.272;2023-06-14T02:53:48;7.75;;;4.53;;
44766;SDS011;30487;48.716;9.272;2023-06-14T02:56:14;7.50;;;4.53;;
44766;SDS011;30487;48.716;9.272;2023-06-14T02:58:42;10.70;;;4.15;;
44766;SDS011;30487;48.716;9.272;2023-06-14T03:01:07;7.55;;;4.28;;
44766;SDS011;30487;48.716;9.272;2023-06-14T03:03:35;7.43;;;4.35;;
44766;SDS011;30487;48.716;9.272;2023-06-14T03:06:00;7.75;;;4.40;;
44766;SDS011;30487;48.716;9.272;2023-06-14T03:08:29;8.23;;;4.22;;
44766;SDS011;30487;48.716;9.272;2023-06-14T03:10:56;8.70;;;4.10;;
44766;SDS011;30487;48.716;9.272;2023-06-14T03:13:22;9.90;;;4.70;;
44766;SDS011;30487;48.716;9.272;2023-06-14T03:15:48;10.80;;;4.38;;
44766;SDS011;30487;48.716;9.272;2023-06-14T03:18:16;7.47;;;4.32;;
44766;SDS011;30487;48.716;9.272;2023-06-14T03:20:42;11.73;;;4.22;;
44766;SDS011;30487;48.716;9.272;2023-06-14T03:23:10;9.48;;;4.50;;
44766;SDS011;30487;48.716;9.272;2023-06-14T03:25:37;9.73;;;4.22;;
44766;SDS011;30487;48.716;9.272;2023-06-14T03:28:04;7.20;;;4.40;;
44766;SDS011;30487;48.716;9.272;2023-06-14T03:30:30;7.30;;;4.13;;
44766;SDS011;30487;48.716;9.272;2023-06-14T03:32:56;8.63;;;4.50;;
44766;SDS011;30487;48.716;9.272;2023-06-14T03:35:23;8.52;;;4.22;;
44766;SDS011;30487;48.716;9.272;2023-06-14T03:37:48;8.30;;;4.05;;
44766;SDS011;30487;48.716;9.272;2023-06-14T03:40:15;10.05;;;4.20;;
44766;SDS011;30487;48.716;9.272;2023-06-14T03:42:42;7.93;;;4.20;;
44766;SDS011;30487;48.716;9.272;2023-06-14T03:45:08;8.00;;;4.20;;
44766;SDS011;30487;48.716;9.272;2023-06-14T03:47:34;9.48;;;4.63;;
44766;SDS011;30487;48.716;9.272;2023-06-14T03:50:00;9.82;;;4.53;;
44766;SDS011;30487;48.716;9.272;2023-06-14T03:52:29;13.90;;;4.88;;
44766;SDS011;30487;48.716;9.272;2023-06-14T03:54:58;10.68;;;4.80;;
44766;SDS011;30487;48.716;9.272;2023-06-14T03:57:25;12.32;;;4.65;;
44766;SDS011;30487;48.716;9.272;2023-06-14T03:59:51;12.07;;;5.10;;
44766;SDS011;30487;48.716;9.272;2023-06-14T04:02:16;8.57;;;4.80;;
44766;SDS011;30487;48.716;9.272;2023-06-14T04:04:43;7.88;;;4.53;;
44766;SDS011;30487;48.716;9.272;2023-06-14T04:07:10;11.55;;;4.80;;
44766;SDS011;30487;48.716;9.272;2023-06-14T04:09:37;9.45;;;4.88;;
44766;SDS011;30487;48.716;9.272;2023-06-14T04:12:03;9.13;;;4.93;;
44766;SDS011;30487;48.716;9.272;2023-06-14T04:14:29;11.57;;;4.35;;
44766;SDS011;30487;48.716;9.272;2023-06-14T04:16:55;10.40;;;5.18;;
44766;SDS011;30487;48.716;9.272;2023-06-14T04:19:21;11.68;;;5.53;;
44766;SDS011;30487;48.716;9.272;2023-06-14T04:21:46;8.43;;;4.70;;
44766;SDS011;30487;48.716;9.272;2023-06-14T04:24:12;9.90;;;5.22;;
44766;SDS011;30487;48.716;9.272;2023-06-14T04:26:44;10.80;;;5.05;;
44766;SDS011;30487;48.716;9.272;2023-06-14T04:29:12;7.95;;;4.55;;
44766;SDS011;30487;48.716;9.272;2023-06-14T04:31:42;11.48;;;5.20;;
44766;SDS011;30487;48.716;9.272;2023-06-14T04:34:09;7.78;;;4.55;;
44766;SDS011;30487;48.716;9.272;2023-06-14T04:36:41;9.90;;;5.40;;
44766;SDS011;30487;48.716;9.272;2023-06-14T04:39:14;9.45;;;5.13;;
44766;SDS011;30487;48.716;9.272;2023-06-14T04:41:43;7.68;;;4.82;;
44766;SDS011;30487;48.716;9.272;2023-06-14T04:44:09;10.25;;;4.80;;
44766;SDS011;30487;48.716;9.272;2023-06-14T04:46:35;10.07;;;5.00;;
44766;SDS011;30487;48.716;9.272;2023-06-14T04:49:14;11.20;;;5.00;;
44766;SDS011;30487;48.716;9.272;2023-06-14T04:51:40;10.13;;;4.70;;
44766;SDS011;30487;48.716;9.272;2023-06-14T04:54:07;11.45;;;5.03;;
44766;SDS011;30487;48.716;9.272;2023-06-14T04:56:34;15.13;;;5.10;;
44766;SDS011;30487;48.716;9.272;2023-06-14T04:59:02;8.85;;;4.57;;
44766;SDS011;30487;48.716;9.272;2023-06-14T05:01:29;9.73;;;4.63;;
44766;SDS011;30487;48.716;9.272;2023-06-14T05:03:56;11.20;;;5.88;;
44766;SDS011;30487;48.716;9.272;2023-06-14T05:06:22;10.30;;;4.80;;
44766;SDS011;30487;48.716;9.272;2023-06-14T05:08:48;8.75;;;4.32;;
44766;SDS011;30487;48.716;9.272;2023-06-14T05:11:13;6.93;;;4.10;;
44766;SDS011;30487;48.716;9.272;2023-06-14T05:13:39;6.85;;;4.05;;
44766;SDS011;30487;48.716;9.272;2023-06-14T05:16:05;8.00;;;4.18;;
44766;SDS011;30487;48.716;9.272;2023-06-14T05:18:31;11.43;;;4.63;;
44766;SDS011;30487;48.716;9.272;2023-06-14T05:20:59;6.72;;;4.22;;
44766;SDS011;30487;48.716;9.272;2023-06-14T05:23:25;12.68;;;4.13;;
44766;SDS011;30487;48.716;9.272;2023-06-14T05:25:50;12.23;;;4.55;;
44766;SDS011;30487;48.716;9.272;2023-06-14T05:28:16;8.32;;;4.05;;
44766;SDS011;30487;48.716;9.272;2023-06-14T05:30:41;10.23;;;4.00;;
44766;SDS011;30487;48.716;9.272;2023-06-14T05:33:07;9.05;;;4.43;;
44766;SDS011;30487;48.716;9.272;2023-06-14T05:35:33;11.23;;;4.93;;
44766;SDS011;30487;48.716;9.272;2023-06-14T05:37:58;8.25;;;4.53;;
44766;SDS011;30487;48.716;9.272;2023-06-14T05:40:24;7.95;;;3.88;;
44766;SDS011;30487;48.716;9.272;2023-06-14T05:42:50;8.65;;;3.92;;
44766;SDS011;30487;48.716;9.272;2023-06-14T05:45:16;12.98;;;4.38;;
44766;SDS011;30487;48.716;9.272;2023-06-14T05:47:42;8.90;;;4.28;;
44766;SDS011;30487;48.716;9.272;2023-06-14T05:50:07;8.20;;;4.15;;
44766;SDS011;30487;48.716;9.272;2023-06-14T05:52:34;12.93;;;4.60;;
44766;SDS011;30487;48.716;9.272;2023-06-14T05:55:00;12.55;;;4.05;;
44766;SDS011;30487;48.716;9.272;2023-06-14T05:57:25;9.82;;;4.30;;
44766;SDS011;30487;48.716;9.272;2023-06-14T05:59:51;8.05;;;4.10;;
44766;SDS011;30487;48.716;9.272;2023-06-14T06:02:16;8.55;;;3.97;;
44766;SDS011;30487;48.716;9.272;2023-06-14T06:04:42;10.00;;;4.50;;
44766;SDS011;30487;48.716;9.272;2023-06-14T06:07:09;10.43;;;4.28;;
44766;SDS011;30487;48.716;9.272;2023-06-14T06:09:35;8.65;;;3.95;;
44766;SDS011;30487;48.716;9.272;2023-06-14T06:12:00;9.73;;;4.57;;
44766;SDS011;30487;48.716;9.272;2023-06-14T06:14:26;8.13;;;4.40;;
44766;SDS011;30487;48.716;9.272;2023-06-14T06:16:52;7.70;;;4.00;;
44766;SDS011;30487;48.716;9.272;2023-06-14T06:19:19;11.95;;;4.68;;
44766;SDS011;30487;48.716;9.272;2023-06-14T06:21:45;9.07;;;4.68;;
44766;SDS011;30487;48.716;9.272;2023-06-14T06:24:10;10.18;;;4.25;;
44766;SDS011;30487;48.716;9.272;2023-06-14T06:26:36;7.25;;;4.55;;
44766;SDS011;30487;48.716;9.272;2023-06-14T06:29:01;10.30;;;5.10;;
44766;SDS011;30487;48.716;9.272;2023-06-14T06:31:27;11.80;;;5.05;;
44766;SDS011;30487;48.716;9.272;2023-06-14T06:33:55;8.07;;;4.20;;
44766;SDS011;30487;48.716;9.272;2023-06-14T06:36:21;10.30;;;4.47;;
44766;SDS011;30487;48.716;9.272;2023-06-14T06:38:47;8.77;;;4.70;;
44766;SDS011;30487;48.716;9.272;2023-06-14T06:41:13;8.38;;;4.60;;
44766;SDS011;30487;48.716;9.272;2023-06-14T06:43:38;6.93;;;4.30;;
44766;SDS011;30487;48.716;9.272;2023-06-14T06:46:04;6.72;;;4.05;;
44766;SDS011;30487;48.716;9.272;2023-06-14T06:48:30;12.15;;;4.05;;
44766;SDS011;30487;48.716;9.272;2023-06-14T06:50:55;10.50;;;3.97;;
44766;SDS011;30487;48.716;9.272;2023-06-14T06:53:21;8.80;;;3.80;;
44766;SDS011;30487;48.716;9.272;2023-06-14T06:55:47;14.40;;;4.07;;
44766;SDS011;30487;48.716;9.272;2023-06-14T06:58:13;6.10;;;4.00;;
44766;SDS011;30487;48.716;9.272;2023-06-14T07:00:39;7.47;;;3.50;;
44766;SDS011;30487;48.716;9.272;2023-06-14T07:03:05;7.95;;;3.55;;
44766;SDS011;30487;48.716;9.272;2023-06-14T07:05:30;9.32;;;3.70;;
44766;SDS011;30487;48.716;9.272;2023-06-14T07:07:57;8.15;;;3.60;;
44766;SDS011;30487;48.716;9.272;2023-06-14T07:10:23;7.97;;;3.92;;
44766;SDS011;30487;48.716;9.272;2023-06-14T07:12:49;6.57;;;3.47;;
44766;SDS011;30487;48.716;9.272;2023-06-14T07:15:15;7.50;;;3.53;;
44766;SDS011;30487;48.716;9.272;2023-06-14T07:17:41;6.20;;;3.08;;
44766;SDS011;30487;48.716;9.272;2023-06-14T07:20:07;8.25;;;3.80;;
44766;SDS011;30487;48.716;9.272;2023-06-14T07:22:36;12.57;;;3.70;;
44766;SDS011;30487;48.716;9.272;2023-06-14T07:25:04;6.10;;;3.60;;
44766;SDS011;30487;48.716;9.272;2023-06-14T07:27:29;7.72;;;4.20;;
44766;SDS011;30487;48.716;9.272;2023-06-14T07:29:55;7.63;;;3.40;;
44766;SDS011;30487;48.716;9.272;2023-06-14T07:32:21;6.82;;;3.80;;
44766;SDS011;30487;48.716;9.272;2023-06-14T07:34:46;5.55;;;3.60;;
44766;SDS011;30487;48.716;9.272;2023-06-14T07:37:12;6.60;;;3.72;;
44766;SDS011;30487;48.716;9.272;2023-06-14T07:39:37;13.20;;;4.10;;
44766;SDS011;30487;48.716;9.272;2023-06-14T07:42:03;9.00;;;3.72;;
44766;SDS011;30487;48.716;9.272;2023-06-14T07:44:30;6.05;;;3.40;;
44766;SDS011;30487;48.716;9.272;2023-06-14T07:46:56;8.70;;;3.72;;
44766;SDS011;30487;48.716;9.272;2023-06-14T07:49:24;8.38;;;3.92;;
44766;SDS011;30487;48.716;9.272;2023-06-14T07:51:50;5.25;;;3.05;;
44766;SDS011;30487;48.716;9.272;2023-06-14T07:54:16;6.63;;;3.35;;
44766;SDS011;30487;48.716;9.272;2023-06-14T07:56:42;7.47;;;3.53;;
44766;SDS011;30487;48.716;9.272;2023-06-14T07:59:07;4.22;;;3.10;;
44766;SDS011;30487;48.716;9.272;2023-06-14T08:01:33;4.95;;;3.17;;
44766;SDS011;30487;48.716;9.272;2023-06-14T08:03:59;7.07;;;2.95;;
44766;SDS011;30487;48.716;9.272;2023-06-14T08:06:25;5.07;;;3.30;;
44766;SDS011;30487;48.716;9.272;2023-06-14T08:08:51;8.60;;;4.13;;
44766;SDS011;30487;48.716;9.272;2023-06-14T08:11:17;6.53;;;3.72;;
44766;SDS011;30487;48.716;9.272;2023-06-14T08:13:42;6.93;;;3.70;;
44766;SDS011;30487;48.716;9.272;2023-06-14T08:16:08;9.60;;;4.10;;
44766;SDS011;30487;48.716;9.272;2023-06-14T08:18:34;7.85;;;3.70;;
44766;SDS011;30487;48.716;9.272;2023-06-14T08:21:00;5.72;;;3.53;;
44766;SDS011;30487;48.716;9.272;2023-06-14T08:23:25;10.00;;;3.80;;
44766;SDS011;30487;48.716;9.272;2023-06-14T08:25:51;6.68;;;3.28;;
44766;SDS011;30487;48.716;9.272;2023-06-14T08:28:17;7.95;;;4.13;;
44766;SDS011;30487;48.716;9.272;2023-06-14T08:30:43;6.78;;;3.75;;
44766;SDS011;30487;48.716;9.272;2023-06-14T08:33:08;8.73;;;3.75;;
44766;SDS011;30487;48.716;9.272;2023-06-14T08:35:34;8.23;;;4.10;;
44766;SDS011;30487;48.716;9.272;2023-06-14T08:38:02;6.93;;;3.80;;
44766;SDS011;30487;48.716;9.272;2023-06-14T08:40:29;6.45;;;3.20;;
44766;SDS011;30487;48.716;9.272;2023-06-14T08:42:56;7.45;;;3.40;;
44766;SDS011;30487;48.716;9.272;2023-06-14T08:45:22;11.02;;;3.58;;
44766;SDS011;30487;48.716;9.272;2023-06-14T08:47:49;9.70;;;3.95;;
44766;SDS011;30487;48.716;9.272;2023-06-14T08:50:19;7.82;;;3.75;;
44766;SDS011;30487;48.716;9.272;2023-06-14T08:52:50;9.05;;;3.78;;
44766;SDS011;30487;48.716;9.272;2023-06-14T08:55:19;6.35;;;3.33;;
44766;SDS011;30487;48.716;9.272;2023-06-14T08:57:46;8.27;;;3.30;;
44766;SDS011;30487;48.716;9.272;2023-06-14T09:00:14;6.07;;;3.20;;
44766;SDS011;30487;48.716;9.272;2023-06-14T09:02:40;8.43;;;3.30;;
44766;SDS011;30487;48.716;9.272;2023-06-14T09:05:08;10.05;;;3.60;;
44766;SDS011;30487;48.716;9.272;2023-06-14T09:07:35;11.38;;;3.55;;
44766;SDS011;30487;48.716;9.272;2023-06-14T09:10:14;8.50;;;3.70;;
44766;SDS011;30487;48.716;9.272;2023-06-14T09:12:40;9.10;;;3.60;;
44766;SDS011;30487;48.716;9.272;2023-06-14T09:15:06;6.90;;;3.60;;
44766;SDS011;30487;48.716;9.272;2023-06-14T09:17:33;8.82;;;3.90;;
44766;SDS011;30487;48.716;9.272;2023-06-14T09:20:04;6.32;;;3.30;;
44766;SDS011;30487;48.716;9.272;2023-06-14T09:22:38;6.75;;;3.30;;
44766;SDS011;30487;48.716;9.272;2023-06-14T09:25:04;8.48;;;3.92;;
44766;SDS011;30487;48.716;9.272;2023-06-14T09:27:31;10.88;;;3.50;;
44766;SDS011;30487;48.716;9.272;2023-06-14T09:29:57;5.18;;;3.17;;
44766;SDS011;30487;48.716;9.272;2023-06-14T09:32:23;7.78;;;3.47;;
44766;SDS011;30487;48.716;9.272;2023-06-14T09:34:49;7.40;;;3.58;;
44766;SDS011;30487;48.716;9.272;2023-06-14T09:37:28;6.88;;;3.35;;
44766;SDS011;30487;48.716;9.272;2023-06-14T09:39:54;7.65;;;3.28;;
44766;SDS011;30487;48.716;9.272;2023-06-14T09:42:20;7.80;;;3.60;;
44766;SDS011;30487;48.716;9.272;2023-06-14T09:44:49;9.27;;;3.97;;
44766;SDS011;30487;48.716;9.272;2023-06-14T09:47:15;6.97;;;3.38;;
44766;SDS011;30487;48.716;9.272;2023-06-14T09:49:41;6.30;;;3.35;;
44766;SDS011;30487;48.716;9.272;2023-06-14T09:52:08;6.35;;;3.10;;
44766;SDS011;30487;48.716;9.272;2023-06-14T09:54:39;5.18;;;3.05;;
44766;SDS011;30487;48.716;9.272;2023-06-14T09:57:11;8.65;;;3.08;;
44766;SDS011;30487;48.716;9.272;2023-06-14T09:59:42;10.50;;;3.67;;
44766;SDS011;30487;48.716;9.272;2023-06-14T10:02:11;7.25;;;3.08;;
44766;SDS011;30487;48.716;9.272;2023-06-14T10:04:46;11.80;;;3.38;;
44766;SDS011;30487;48.716;9.272;2023-06-14T10:07:22;11.13;;;3.30;;
44766;SDS011;30487;48.716;9.272;2023-06-14T10:09:51;8.63;;;3.47;;
44766;SDS011;30487;48.716;9.272;2023-06-14T10:12:18;9.55;;;3.30;;
44766;SDS011;30487;48.716;9.272;2023-06-14T10:14:50;12.88;;;3.17;;
44766;SDS011;30487;48.716;9.272;2023-06-14T10:22:51;6.38;;;3.30;;
44766;SDS011;30487;48.716;9.272;2023-06-14T10:25:27;8.95;;;3.28;;
44766;SDS011;30487;48.716;9.272;2023-06-14T10:28:02;7.40;;;2.72;;
44766;SDS011;30487;48.716;9.272;2023-06-14T10:30:44;7.03;;;3.22;;
44766;SDS011;30487;48.716;9.272;2023-06-14T10:33:50;5.45;;;3.00;;
44766;SDS011;30487;48.716;9.272;2023-06-14T10:36:30;6.25;;;3.03;;
44766;SDS011;30487;48.716;9.272;2023-06-14T10:39:01;9.40;;;3.10;;
44766;SDS011;30487;48.716;9.272;2023-06-14T10:41:36;5.88;;;3.15;;
44766;SDS011;30487;48.716;9.272;2023-06-14T10:44:45;6.00;;;3.20;;
44766;SDS011;30487;48.716;9.272;2023-06-14T10:46:55;5.57;;;3.00;;
44766;SDS011;30487;48.716;9.272;2023-06-14T10:52:16;6.07;;;3.22;;
44766;SDS011;30487;48.716;9.272;2023-06-14T10:55:01;8.18;;;2.90;;
44766;SDS011;30487;48.716;9.272;2023-06-14T10:57:29;4.72;;;3.08;;
44766;SDS011;30487;48.716;9.272;2023-06-14T11:00:02;6.65;;;3.65;;
44766;SDS011;30487;48.716;9.272;2023-06-14T11:05:31;6.65;;;3.22;;
44766;SDS011;30487;48.716;9.272;2023-06-14T11:10:44;7.40;;;3.13;;
44766;SDS011;30487;48.716;9.272;2023-06-14T11:13:12;4.68;;;3.10;;
44766;SDS011;30487;48.716;9.272;2023-06-14T11:15:38;6.63;;;3.50;;
44766;SDS011;30487;48.716;9.272;2023-06-14T11:18:09;6.80;;;3.00;;
44766;SDS011;30487;48.716;9.272;2023-06-14T11:20:37;6.50;;;3.22;;
44766;SDS011;30487;48.716;9.272;2023-06-14T11:23:03;5.00;;;2.90;;
44766;SDS011;30487;48.716;9.272;2023-06-14T11:25:29;7.32;;;2.85;;
44766;SDS011;30487;48.716;9.272;2023-06-14T11:27:55;4.93;;;2.65;;
44766;SDS011;30487;48.716;9.272;2023-06-14T11:30:21;4.32;;;2.80;;
44766;SDS011;30487;48.716;9.272;2023-06-14T11:32:47;6.63;;;3.33;;
44766;SDS011;30487;48.716;9.272;2023-06-14T11:35:17;6.63;;;3.40;;
44766;SDS011;30487;48.716;9.272;2023-06-14T11:37:43;4.25;;;2.92;;
44766;SDS011;30487;48.716;9.272;2023-06-14T11:40:09;7.45;;;3.10;;
44766;SDS011;30487;48.716;9.272;2023-06-14T11:42:36;5.72;;;2.70;;
44766;SDS011;30487;48.716;9.272;2023-06-14T11:45:03;6.50;;;2.95;;
44766;SDS011;30487;48.716;9.272;2023-06-14T11:47:32;9.48;;;3.22;;
44766;SDS011;30487;48.716;9.272;2023-06-14T11:50:02;4.35;;;3.03;;
44766;SDS011;30487;48.716;9.272;2023-06-14T11:52:28;8.07;;;3.47;;
44766;SDS011;30487;48.716;9.272;2023-06-14T11:54:54;5.68;;;3.38;;
44766;SDS011;30487;48.716;9.272;2023-06-14T11:57:21;6.03;;;2.83;;
44766;SDS011;30487;48.716;9.272;2023-06-14T11:59:46;5.50;;;3.03;;
44766;SDS011;30487;48.716;9.272;2023-06-14T12:02:15;4.40;;;2.80;;
44766;SDS011;30487;48.716;9.272;2023-06-14T12:04:42;6.20;;;3.20;;
44766;SDS011;30487;48.716;9.272;2023-06-14T12:07:09;7.68;;;3.00;;
44766;SDS011;30487;48.716;9.272;2023-06-14T12:09:40;10.07;;;3.67;;
44766;SDS011;30487;48.716;9.272;2023-06-14T12:12:11;4.15;;;3.05;;
44766;SDS011;30487;48.716;9.272;2023-06-14T12:14:37;5.82;;;3.35;;
44766;SDS011;30487;48.716;9.272;2023-06-14T12:17:06;6.85;;;3.08;;
44766;SDS011;30487;48.716;9.272;2023-06-14T12:19:32;4.95;;;2.78;;
44766;SDS011;30487;48.716;9.272;2023-06-14T12:22:03;4.75;;;3.08;;
44766;SDS011;30487;48.716;9.272;2023-06-14T12:24:30;6.20;;;3.10;;
44766;SDS011;30487;48.716;9.272;2023-06-14T12:27:00;5.07;;;3.30;;
44766;SDS011;30487;48.716;9.272;2023-06-14T12:29:28;5.05;;;3.00;;
44766;SDS011;30487;48.716;9.272;2023-06-14T12:31:53;7.45;;;3.05;;
44766;SDS011;30487;48.716;9.272;2023-06-14T12:34:21;4.07;;;2.80;;
44766;SDS011;30487;48.716;9.272;2023-06-14T12:36:50;8.18;;;2.88;;
44766;SDS011;30487;48.716;9.272;2023-06-14T12:39:16;5.35;;;3.05;;
44766;SDS011;30487;48.716;9.272;2023-06-14T12:41:41;5.05;;;2.88;;
44766;SDS011;30487;48.716;9.272;2023-06-14T12:44:07;6.88;;;3.10;;
44766;SDS011;30487;48.716;9.272;2023-06-14T12:46:33;7.03;;;2.90;;
44766;SDS011;30487;48.716;9.272;2023-06-14T12:48:59;8.15;;;3.33;;
44766;SDS011;30487;48.716;9.272;2023-06-14T12:51:25;4.88;;;2.53;;
44766;SDS011;30487;48.716;9.272;2023-06-14T12:53:51;6.55;;;2.95;;
44766;SDS011;30487;48.716;9.272;2023-06-14T12:56:18;6.20;;;3.00;;
44766;SDS011;30487;48.716;9.272;2023-06-14T12:58:43;7.10;;;2.80;;
44766;SDS011;30487;48.716;9.272;2023-06-14T13:01:09;6.47;;;2.88;;
44766;SDS011;30487;48.716;9.272;2023-06-14T13:03:34;5.57;;;3.13;;
44766;SDS011;30487;48.716;9.272;2023-06-14T13:06:00;7.13;;;3.10;;
44766;SDS011;30487;48.716;9.272;2023-06-14T13:08:26;6.25;;;2.97;;
44766;SDS011;30487;48.716;9.272;2023-06-14T13:10:52;4.38;;;2.72;;
44766;SDS011;30487;48.716;9.272;2023-06-14T13:13:18;9.70;;;3.28;;
44766;SDS011;30487;48.716;9.272;2023-06-14T13:15:44;7.65;;;3.40;;
44766;SDS011;30487;48.716;9.272;2023-06-14T13:18:11;5.28;;;2.97;;
44766;SDS011;30487;48.716;9.272;2023-06-14T13:20:38;4.93;;;2.78;;
44766;SDS011;30487;48.716;9.272;2023-06-14T13:23:04;9.75;;;3.00;;
44766;SDS011;30487;48.716;9.272;2023-06-14T13:25:32;6.05;;;3.45;;
44766;SDS011;30487;48.716;9.272;2023-06-14T13:27:58;5.65;;;3.03;;
44766;SDS011;30487;48.716;9.272;2023-06-14T13:30:24;3.30;;;2.45;;
44766;SDS011;30487;48.716;9.272;2023-06-14T13:32:49;5.20;;;2.67;;
44766;SDS011;30487;48.716;9.272;2023-06-14T13:35:16;5.30;;;2.88;;
44766;SDS011;30487;48.716;9.272;2023-06-14T13:37:43;6.50;;;2.90;;
44766;SDS011;30487;48.716;9.272;2023-06-14T13:40:08;4.72;;;2.70;;
44766;SDS011;30487;48.716;9.272;2023-06-14T13:42:34;6.20;;;3.00;;
44766;SDS011;30487;48.716;9.272;2023-06-14T13:45:01;4.10;;;2.80;;
44766;SDS011;30487;48.716;9.272;2023-06-14T13:47:28;4.80;;;2.55;;
44766;SDS011;30487;48.716;9.272;2023-06-14T13:49:53;8.25;;;3.47;;
44766;SDS011;30487;48.716;9.272;2023-06-14T13:52:19;5.50;;;3.00;;
44766;SDS011;30487;48.716;9.272;2023-06-14T13:54:45;6.60;;;2.85;;
44766;SDS011;30487;48.716;9.272;2023-06-14T13:57:11;6.53;;;2.78;;
44766;SDS011;30487;48.716;9.272;2023-06-14T13:59:37;8.70;;;2.95;;
44766;SDS011;30487;48.716;9.272;2023-06-14T14:02:04;7.68;;;3.00;;
44766;SDS011;30487;48.716;9.272;2023-06-14T14:04:30;6.55;;;2.92;;
44766;SDS011;30487;48.716;9.272;2023-06-14T14:06:56;7.63;;;3.30;;
44766;SDS011;30487;48.716;9.272;2023-06-14T14:09:22;7.55;;;2.88;;
44766;SDS011;30487;48.716;9.272;2023-06-14T14:11:47;8.70;;;3.17;;
44766;SDS011;30487;48.716;9.272;2023-06-14T14:14:13;5.50;;;2.67;;
44766;SDS011;30487;48.716;9.272;2023-06-14T14:16:39;6.10;;;2.83;;
44766;SDS011;30487;48.716;9.272;2023-06-14T14:19:05;4.65;;;3.15;;
44766;SDS011;30487;48.716;9.272;2023-06-14T14:21:31;6.35;;;2.90;;
44766;SDS011;30487;48.716;9.272;2023-06-14T14:23:57;9.10;;;3.00;;
44766;SDS011;30487;48.716;9.272;2023-06-14T14:26:23;8.18;;;2.92;;
44766;SDS011;30487;48.716;9.272;2023-06-14T14:28:50;8.15;;;2.88;;
44766;SDS011;30487;48.716;9.272;2023-06-14T14:31:16;7.95;;;2.97;;
44766;SDS011;30487;48.716;9.272;2023-06-14T14:33:41;8.55;;;2.88;;
44766;SDS011;30487;48.716;9.272;2023-06-14T14:36:07;8.68;;;3.13;;
44766;SDS011;30487;48.716;9.272;2023-06-14T14:38:33;6.22;;;3.03;;
44766;SDS011;30487;48.716;9.272;2023-06-14T14:40:58;7.80;;;3.20;;
44766;SDS011;30487;48.716;9.272;2023-06-14T14:43:24;11.38;;;3.35;;
44766;SDS011;30487;48.716;9.272;2023-06-14T14:45:50;6.22;;;3.30;;
44766;SDS011;30487;48.716;9.272;2023-06-14T14:48:15;6.82;;;2.80;;
44766;SDS011;30487;48.716;9.272;2023-06-14T14:50:41;5.72;;;2.95;;
44766;SDS011;30487;48.716;9.272;2023-06-14T14:53:06;6.20;;;2.65;;
44766;SDS011;30487;48.716;9.272;2023-06-14T14:55:32;5.60;;;2.65;;
44766;SDS011;30487;48.716;9.272;2023-06-14T14:58:01;5.05;;;2.88;;
44766;SDS011;30487;48.716;9.272;2023-06-14T15:00:27;6.57;;;2.60;;
44766;SDS011;30487;48.716;9.272;2023-06-14T15:02:53;5.03;;;2.70;;
44766;SDS011;30487;48.716;9.272;2023-06-14T15:05:18;6.60;;;2.80;;
44766;SDS011;30487;48.716;9.272;2023-06-14T15:07:44;6.35;;;2.88;;